Terminal Aerodrome Forecast
Issued by NWS

Home | Current Version | Previous Version | Graphics & Text | Print | Product List | Glossary On
Versions: 1 2 3 4 5 6 7 8 9 10 11 12 13 14 15 16 17
507
FTUS43 KOAX 262327
TAFCDR
TAF
KCDR 262327Z 2700/2724 04006KT P6SM FEW250
     FM270100 08010KT P6SM VCTS SCT050CB BKN200
     FM270300 04012KT P6SM BKN120
     FM270700 02006KT P6SM -RA BKN008
     FM271400 05009KT P6SM SCT012 OVC100
     FM272200 08013KT P6SM VCTS BKN100CB=

USA.gov is the U.S. government's official web portal to all federal, state and local government web resources and services.